Portada
METAR-TAF:

METAR-TAF

Aeroports :

Patna, Índia

latitud: 25-36N, longitud: 085-06E, altitud: 51 m

Observació

L'informe es va fer fa 14 minuts, a les 13:30 UTC
Vent calma
Temperatura 33°C
Humitat 59%
Pressió 1002 hPa
Visibilitat: 3000 m
Núvols disperses a una alçada de 1800 ft
Cel ennuvolat a una alçada de 10000 ft
calitja

METAR: VEPT 031330Z 00000KT 3000 HZ SCT018 BKN100 33/24 Q1002 NOSIG

Hora: 19:14 (13:44 UTC)

Pronòstic

L'informe es va fer fa 2 hores i 44 minuts, a les 11:00 UTC
Pronòstic vàlid del 03 a les 12 UTC al 03 a les 21 UTC
Vent 4 kt del Oest
Visibilitat: 3000 m
Núvols disperses a una alçada de 2000 ft
Cel ennuvolat a una alçada de 10000 ft
calitja

TAF: VEPT 031100Z 0312/0321 27004KT 3000 HZ SCT020 BKN100

Observacions i pronòstics meteorològics de més de 4000 aeroports (METAR i TAF).

Les estacions disponibles són els punts grocs i vermells al mapa.

Posi el ratolí al punt desitjat per veure el nom de l'estació.

Feu clic per veure les observacions i els pronòstics meteorològics.

Per canviar el mapa: feu clic els botons verds amb una creu de color negre per apropar; al botó verd amb un guió per allunyar la imatge; o en les fletxes verdes per a mapes adjacents.


METAR-TAF: